Time;durP1;ratioP1;P1;durP2;ratioP2;P2;SDS_P1;SDS_P2;PMS_P1;PMS_P2;Temp;Humidity;BMP_temperature;BMP_pressure;BME280_temperature;BME280_humidity;BME280_pressure;Samples;Min_cycle;Max_cycle;Signal;HPM_P1;HPM_P2
2021/12/02 00:00:19;;;;;;;9.40;1.45;;;4.20;99.90;;;;;;5052183;28;20401;-74
2021/12/02 00:02:44;;;;;;;11.27;1.35;;;4.30;99.90;;;;;;5055091;28;20041;-74
2021/12/02 00:05:10;;;;;;;14.00;1.67;;;4.20;99.90;;;;;;5055512;28;20116;-74
2021/12/02 00:07:35;;;;;;;9.30;1.58;;;4.20;99.90;;;;;;5055919;28;20036;-75
2021/12/02 00:10:03;;;;;;;7.93;1.92;;;4.20;99.90;;;;;;5055637;28;20045;-74
2021/12/02 00:12:29;;;;;;;5.78;1.00;;;4.20;99.90;;;;;;5055531;28;20412;-74
2021/12/02 00:14:55;;;;;;;10.05;1.55;;;4.20;99.90;;;;;;5055415;28;20033;-74
2021/12/02 00:17:29;;;;;;;6.50;1.27;;;4.20;99.90;;;;;;5055483;28;20033;-74
2021/12/02 00:23:22;;;;;;;9.18;1.88;;;4.10;99.90;;;;;;5055304;28;20053;-74
2021/12/02 00:25:51;;;;;;;7.55;1.02;;;4.20;99.90;;;;;;5029690;28;20136;-74
2021/12/02 00:28:18;;;;;;;8.30;1.30;;;4.20;99.90;;;;;;5055248;28;20090;-74
2021/12/02 00:30:43;;;;;;;7.45;1.15;;;4.20;99.90;;;;;;5055174;28;20122;-74
2021/12/02 00:33:11;;;;;;;8.93;1.30;;;4.20;99.90;;;;;;5055110;28;20070;-74
2021/12/02 00:35:36;;;;;;;6.63;1.05;;;4.10;99.90;;;;;;5055162;28;20049;-74
2021/12/02 00:38:02;;;;;;;7.22;1.17;;;4.20;99.90;;;;;;5055126;28;20063;-74
2021/12/02 00:40:28;;;;;;;9.10;1.33;;;4.20;99.90;;;;;;5055067;28;20051;-74
2021/12/02 00:42:55;;;;;;;9.80;1.30;;;4.10;99.90;;;;;;5054904;28;20045;-74
2021/12/02 00:45:21;;;;;;;8.32;1.10;;;4.10;99.90;;;;;;5055139;28;20037;-74
2021/12/02 00:47:47;;;;;;;8.10;1.05;;;4.10;99.90;;;;;;5054883;28;20520;-74
2021/12/02 00:50:13;;;;;;;6.18;1.58;;;4.10;99.90;;;;;;5054899;28;20076;-74
2021/12/02 01:00:35;;;;;;;7.50;0.95;;;4.00;99.90;;;;;;5056585;28;20028;-74
2021/12/02 01:03:02;;;;;;;8.10;1.52;;;4.00;99.90;;;;;;5054811;28;20099;-74
2021/12/02 01:05:29;;;;;;;6.75;0.90;;;4.00;99.90;;;;;;5054427;28;20112;-74
2021/12/02 01:07:58;;;;;;;5.80;0.85;;;4.10;99.90;;;;;;5054786;28;20045;-74
2021/12/02 01:10:24;;;;;;;9.10;1.23;;;4.10;99.90;;;;;;5054753;28;20162;-74
2021/12/02 01:12:50;;;;;;;4.88;0.80;;;4.10;99.90;;;;;;5054247;28;20526;-74
2021/12/02 01:15:16;;;;;;;5.70;0.90;;;4.10;99.90;;;;;;5054315;28;20044;-74
2021/12/02 01:17:42;;;;;;;7.55;1.10;;;4.10;99.90;;;;;;5054334;28;20047;-74
2021/12/02 01:20:09;;;;;;;6.75;1.00;;;4.10;99.90;;;;;;5054235;28;20067;-74
2021/12/02 01:22:38;;;;;;;6.30;0.85;;;4.10;99.90;;;;;;5054269;28;20053;-74
2021/12/02 01:25:06;;;;;;;6.65;0.88;;;4.10;99.90;;;;;;5054052;28;20033;-74
2021/12/02 01:27:35;;;;;;;7.22;1.13;;;4.10;99.90;;;;;;5054207;28;20041;-74
2021/12/02 01:30:01;;;;;;;8.98;0.93;;;4.10;99.90;;;;;;5037480;28;20033;-74
2021/12/02 01:32:28;;;;;;;4.38;0.80;;;4.10;99.90;;;;;;5054039;28;20043;-74
2021/12/02 01:34:57;;;;;;;7.88;1.00;;;4.00;99.90;;;;;;5053914;28;20052;-75
2021/12/02 01:37:23;;;;;;;5.75;1.10;;;4.00;99.90;;;;;;5037422;28;20045;-75
2021/12/02 01:39:49;;;;;;;4.97;0.75;;;4.10;99.90;;;;;;5054172;28;20041;-75
2021/12/02 01:42:29;;;;;;;9.13;0.90;;;4.00;99.90;;;;;;5053876;28;20447;-75
2021/12/02 01:44:57;;;;;;;6.80;0.90;;;4.10;99.90;;;;;;5053759;28;20098;-75
2021/12/02 01:47:25;;;;;;;7.00;1.20;;;4.10;99.90;;;;;;5054055;28;20033;-75
2021/12/02 01:49:56;;;;;;;4.25;0.60;;;4.10;99.90;;;;;;5053723;28;20044;-75
2021/12/02 01:52:29;;;;;;;6.50;0.90;;;4.10;99.90;;;;;;5054025;28;20041;-75
2021/12/02 01:55:06;;;;;;;8.45;1.38;;;4.10;99.90;;;;;;5053646;28;20037;-75
2021/12/02 01:57:34;;;;;;;4.05;0.80;;;4.10;99.90;;;;;;5053643;28;20041;-74
2021/12/02 02:00:08;;;;;;;8.23;0.90;;;4.00;99.90;;;;;;5053825;28;20572;-74
2021/12/02 02:02:39;;;;;;;4.60;0.90;;;4.00;99.90;;;;;;5053561;28;20087;-74
2021/12/02 02:05:11;;;;;;;4.60;0.82;;;3.90;99.90;;;;;;5053144;28;20401;-74
2021/12/02 02:07:47;;;;;;;4.95;0.85;;;3.90;99.90;;;;;;5053457;28;20479;-74
2021/12/02 02:10:12;;;;;;;7.75;1.00;;;3.80;99.90;;;;;;5053925;28;20079;-74
2021/12/02 02:15:14;;;;;;;6.40;1.00;;;3.60;99.90;;;;;;5364417;22;20053;-74
2021/12/02 02:17:53;;;;;;;6.55;1.10;;;3.60;99.90;;;;;;5000817;28;20037;-75
2021/12/02 02:20:51;;;;;;;4.57;0.60;;;3.60;99.90;;;;;;5016809;28;20408;-75
2021/12/02 02:23:17;;;;;;;6.20;0.90;;;3.60;99.90;;;;;;4999734;28;20049;-75
2021/12/02 02:25:45;;;;;;;5.50;1.30;;;3.50;99.90;;;;;;4999940;28;20091;-74
2021/12/02 02:28:11;;;;;;;3.50;1.35;;;3.50;99.90;;;;;;5038959;22;20046;-71
2021/12/02 02:30:37;;;;;;;4.57;0.75;;;3.50;99.90;;;;;;4999203;28;20046;-71
2021/12/02 02:33:03;;;;;;;3.92;0.70;;;3.50;99.90;;;;;;5015948;28;20033;-71
2021/12/02 02:35:29;;;;;;;4.82;1.13;;;3.50;99.90;;;;;;5015869;28;20048;-71
2021/12/02 02:37:55;;;;;;;7.20;0.60;;;3.40;99.90;;;;;;5015868;28;20053;-71
2021/12/02 02:40:23;;;;;;;6.38;0.65;;;3.40;99.90;;;;;;5015812;28;20046;-71
2021/12/02 02:42:56;;;;;;;3.10;0.40;;;3.40;99.90;;;;;;4999318;28;20124;-71
2021/12/02 02:45:21;;;;;;;3.75;0.70;;;3.30;99.90;;;;;;4999416;28;20034;-71
2021/12/02 02:47:47;;;;;;;4.15;1.17;;;3.40;99.90;;;;;;5015909;28;20092;-71
2021/12/02 02:50:15;;;;;;;4.55;0.85;;;3.40;99.90;;;;;;5015363;28;20037;-71
2021/12/02 02:52:43;;;;;;;4.38;0.50;;;3.30;99.90;;;;;;5015338;28;20084;-71
2021/12/02 02:55:13;;;;;;;4.38;0.55;;;3.30;99.90;;;;;;5015594;28;20037;-71
2021/12/02 02:57:45;;;;;;;5.25;0.68;;;3.40;99.90;;;;;;4999129;28;20049;-71
2021/12/02 03:00:15;;;;;;;4.82;1.00;;;3.30;99.90;;;;;;5015142;28;20041;-71
2021/12/02 03:08:11;;;;;;;2.05;0.50;;;3.20;99.90;;;;;;5000244;28;20519;-71
2021/12/02 03:18:20;;;;;;;5.30;0.60;;;2.90;99.90;;;;;;5014642;28;20493;-71
2021/12/02 03:20:46;;;;;;;4.15;0.70;;;2.80;99.90;;;;;;5015313;28;20048;-71
2021/12/02 03:23:12;;;;;;;6.13;0.80;;;2.90;99.90;;;;;;5015223;28;20108;-71
2021/12/02 03:25:37;;;;;;;4.75;0.82;;;2.80;99.90;;;;;;5015690;28;20406;-71
2021/12/02 03:28:03;;;;;;;3.28;0.50;;;2.80;99.90;;;;;;5015014;28;20116;-71
2021/12/02 03:30:29;;;;;;;3.45;0.50;;;2.90;99.90;;;;;;4998901;28;20038;-71
2021/12/02 03:32:55;;;;;;;4.07;0.60;;;2.90;99.90;;;;;;5014787;28;20474;-71
2021/12/02 03:35:20;;;;;;;1.25;0.40;;;2.80;99.90;;;;;;4998712;28;20045;-71
2021/12/02 03:37:46;;;;;;;6.40;0.65;;;2.90;99.90;;;;;;5013652;28;20034;-70
2021/12/02 03:40:13;;;;;;;3.20;0.63;;;2.90;99.90;;;;;;5014272;28;20041;-71
2021/12/02 03:42:47;;;;;;;3.15;0.52;;;2.90;99.90;;;;;;5014099;28;20038;-71
2021/12/02 03:45:14;;;;;;;2.35;0.68;;;2.90;99.90;;;;;;4998036;28;20042;-71
2021/12/02 03:47:40;;;;;;;4.90;0.82;;;2.90;99.90;;;;;;5014376;28;20041;-71
2021/12/02 03:50:06;;;;;;;3.22;0.70;;;2.90;99.90;;;;;;5014554;28;20037;-71
2021/12/02 03:52:31;;;;;;;3.28;0.40;;;2.90;99.90;;;;;;5015088;28;20062;-71
2021/12/02 03:54:57;;;;;;;4.35;0.52;;;3.00;99.90;;;;;;5015377;28;20542;-70
2021/12/02 03:57:22;;;;;;;4.75;0.60;;;3.00;99.90;;;;;;5013968;28;20044;-71
2021/12/02 03:59:48;;;;;;;4.65;0.88;;;3.10;99.90;;;;;;5014550;28;20041;-71
2021/12/02 04:02:14;;;;;;;3.53;0.52;;;3.10;99.90;;;;;;5013871;28;20065;-71
2021/12/02 04:04:39;;;;;;;4.28;0.75;;;3.10;99.90;;;;;;5013276;28;20069;-70
2021/12/02 04:07:05;;;;;;;4.28;0.60;;;3.10;99.90;;;;;;5013055;28;20597;-70
2021/12/02 04:09:38;;;;;;;7.63;0.90;;;3.10;99.90;;;;;;5012798;28;20042;-71
2021/12/02 04:15:05;;;;;;;3.65;0.70;;;3.10;99.90;;;;;;5004444;28;20580;-70
2021/12/02 04:17:49;;;;;;;4.10;0.77;;;3.10;99.90;;;;;;5012810;28;20049;-70
2021/12/02 04:20:15;;;;;;;;;;;3.10;99.90;;;;;;4996840;28;20486;-71
2021/12/02 04:22:42;;;;;;;3.47;0.52;;;3.00;99.90;;;;;;4996398;28;19917;-70
2021/12/02 04:25:08;;;;;;;6.03;0.80;;;3.00;99.90;;;;;;5012551;28;20150;-70
2021/12/02 04:27:34;;;;;;;2.28;0.70;;;3.00;99.90;;;;;;4996172;28;20030;-70
2021/12/02 04:30:00;;;;;;;4.30;1.02;;;3.00;99.90;;;;;;5012350;28;20047;-71
2021/12/02 04:32:25;;;;;;;4.07;0.50;;;3.00;99.90;;;;;;4996573;28;20115;-71
2021/12/02 04:34:51;;;;;;;4.82;0.75;;;2.90;99.90;;;;;;5013032;28;20501;-70
2021/12/02 04:37:17;;;;;;;5.85;0.80;;;2.90;99.90;;;;;;4996493;28;20042;-70
2021/12/02 04:39:42;;;;;;;5.65;0.60;;;2.90;99.90;;;;;;4996853;28;20084;-71
2021/12/02 04:42:08;;;;;;;3.80;0.70;;;2.90;99.90;;;;;;5012679;28;20108;-71
2021/12/02 04:44:33;;;;;;;4.32;0.70;;;2.80;99.90;;;;;;5012685;28;20042;-70
2021/12/02 04:46:59;;;;;;;4.00;0.60;;;2.80;99.90;;;;;;5013037;28;20044;-70
2021/12/02 04:49:25;;;;;;;4.25;0.55;;;2.80;99.90;;;;;;5016534;28;20038;-71
2021/12/02 04:51:50;;;;;;;4.30;0.77;;;2.80;99.90;;;;;;5017280;28;20032;-70
2021/12/02 04:54:16;;;;;;;3.50;0.70;;;2.80;99.90;;;;;;4999917;28;20452;-71
2021/12/02 04:56:41;;;;;;;3.08;0.38;;;2.80;99.90;;;;;;4999946;28;20124;-71
2021/12/02 04:59:07;;;;;;;1.77;0.45;;;2.80;99.90;;;;;;5016378;28;20041;-70
2021/12/02 05:01:33;;;;;;;3.55;1.15;;;2.80;99.90;;;;;;5016219;28;20037;-71
2021/12/02 05:03:58;;;;;;;3.00;0.55;;;2.80;99.90;;;;;;5016216;28;20096;-71
2021/12/02 05:06:24;;;;;;;4.30;0.55;;;2.80;99.90;;;;;;5015811;28;20120;-71
2021/12/02 05:08:50;;;;;;;5.25;0.60;;;2.80;99.90;;;;;;5000084;28;20034;-70
2021/12/02 05:11:15;;;;;;;2.78;0.50;;;2.80;99.90;;;;;;5016165;28;20076;-71
2021/12/02 05:13:41;;;;;;;6.00;0.60;;;2.80;99.90;;;;;;5016241;28;20046;-70
2021/12/02 05:16:06;;;;;;;1.73;0.50;;;2.70;99.90;;;;;;5015709;28;20042;-71
2021/12/02 05:18:32;;;;;;;6.70;0.68;;;2.70;99.90;;;;;;4999516;28;20054;-71
2021/12/02 05:20:59;;;;;;;0.90;0.47;;;2.70;99.90;;;;;;5016073;28;20050;-70
2021/12/02 05:23:25;;;;;;;3.95;0.60;;;2.60;99.90;;;;;;5015743;28;20041;-71
2021/12/02 05:25:51;;;;;;;4.13;0.60;;;2.60;99.90;;;;;;5015877;28;20140;-71
2021/12/02 05:28:20;;;;;;;6.90;0.70;;;2.60;99.90;;;;;;5015783;28;20035;-71
2021/12/02 05:30:47;;;;;;;2.40;0.40;;;2.60;99.90;;;;;;5015868;28;20038;-71
2021/12/02 05:33:13;;;;;;;3.53;0.60;;;2.60;99.90;;;;;;4999209;28;20445;-71
2021/12/02 05:35:38;;;;;;;2.88;0.40;;;2.60;99.90;;;;;;5015844;28;20038;-71
2021/12/02 05:38:04;;;;;;;1.38;0.30;;;2.60;99.90;;;;;;4999458;28;20129;-71
2021/12/02 05:40:31;;;;;;;4.28;0.65;;;2.60;99.90;;;;;;5015800;28;20065;-71
2021/12/02 05:42:56;;;;;;;2.50;0.30;;;2.60;99.90;;;;;;5015700;28;20041;-71
2021/12/02 05:45:22;;;;;;;2.53;0.40;;;2.60;99.90;;;;;;5015827;28;20041;-71
2021/12/02 05:47:48;;;;;;;4.20;1.27;;;2.60;99.90;;;;;;4998895;28;20445;-71
2021/12/02 05:50:13;;;;;;;2.88;0.50;;;2.70;99.90;;;;;;5015236;28;20045;-71
2021/12/02 05:52:39;;;;;;;4.38;0.52;;;2.70;99.90;;;;;;5015637;28;20132;-71
2021/12/02 05:55:05;;;;;;;3.13;0.40;;;2.70;99.90;;;;;;4999166;28;20494;-71
2021/12/02 05:57:32;;;;;;;2.40;0.50;;;2.70;99.90;;;;;;5015004;28;20046;-71
2021/12/02 05:59:58;;;;;;;5.15;0.45;;;2.80;99.90;;;;;;5014445;28;20125;-71
2021/12/02 06:02:24;;;;;;;2.97;0.40;;;2.80;99.90;;;;;;5015177;28;20387;-71
2021/12/02 06:04:53;;;;;;;2.00;0.38;;;2.80;99.90;;;;;;5015102;28;20096;-71
2021/12/02 06:07:20;;;;;;;1.13;0.20;;;2.80;99.90;;;;;;5015292;28;20038;-71
2021/12/02 06:09:46;;;;;;;2.60;0.40;;;2.80;99.90;;;;;;5015346;28;20073;-71
2021/12/02 06:12:12;;;;;;;3.70;0.60;;;2.80;99.90;;;;;;5015069;28;20048;-71
2021/12/02 06:14:38;;;;;;;4.40;0.65;;;2.80;99.90;;;;;;5015460;28;20497;-71
2021/12/02 06:17:04;;;;;;;2.65;0.40;;;2.80;99.90;;;;;;5015227;28;20049;-71
2021/12/02 06:19:30;;;;;;;2.75;0.40;;;2.90;99.90;;;;;;5014917;28;20053;-71
2021/12/02 06:21:56;;;;;;;3.22;0.55;;;2.90;99.90;;;;;;5015105;28;20077;-71
2021/12/02 06:24:29;;;;;;;2.58;0.63;;;2.90;99.90;;;;;;5014808;28;20109;-71
2021/12/02 06:26:55;;;;;;;4.25;0.63;;;2.90;99.90;;;;;;5014492;28;20042;-70
2021/12/02 06:29:21;;;;;;;1.77;0.70;;;3.00;99.90;;;;;;5014979;28;20038;-71
2021/12/02 06:31:46;;;;;;;6.68;0.65;;;3.00;99.90;;;;;;5014443;28;20049;-71
2021/12/02 06:34:12;;;;;;;2.80;0.40;;;3.00;99.90;;;;;;5014943;28;20042;-71
2021/12/02 06:36:37;;;;;;;4.07;0.47;;;3.00;99.90;;;;;;4998624;28;20050;-71
2021/12/02 06:39:05;;;;;;;1.77;0.40;;;3.00;99.90;;;;;;5014505;28;20045;-71
2021/12/02 06:41:30;;;;;;;2.40;0.40;;;3.00;99.90;;;;;;4998146;28;20046;-71
2021/12/02 06:43:56;;;;;;;3.38;0.32;;;3.00;99.90;;;;;;5014355;28;20038;-71
2021/12/02 06:46:22;;;;;;;4.30;0.60;;;3.10;99.90;;;;;;5014594;28;20034;-71
2021/12/02 06:48:49;;;;;;;2.35;0.60;;;3.10;99.90;;;;;;4997621;28;20048;-71
2021/12/02 06:51:16;;;;;;;4.15;0.80;;;3.10;99.90;;;;;;5014003;28;20065;-71
2021/12/02 06:53:42;;;;;;;6.30;1.30;;;3.10;99.90;;;;;;5014290;28;20046;-71
2021/12/02 06:56:08;;;;;;;2.65;0.90;;;3.10;99.90;;;;;;5013795;28;20525;-71
2021/12/02 06:58:34;;;;;;;3.70;0.75;;;3.20;99.90;;;;;;4997313;28;20046;-71
2021/12/02 07:00:59;;;;;;;5.00;0.80;;;3.10;99.90;;;;;;5013936;28;20061;-71
2021/12/02 07:03:25;;;;;;;4.90;0.60;;;3.10;99.90;;;;;;5013777;28;20053;-71
2021/12/02 07:05:51;;;;;;;4.32;0.73;;;3.10;99.90;;;;;;4997408;28;20065;-71
2021/12/02 07:08:16;;;;;;;2.80;0.60;;;3.10;99.90;;;;;;5015384;28;20060;-70
2021/12/02 07:10:42;;;;;;;3.85;0.60;;;3.10;99.90;;;;;;5013678;28;20076;-70
2021/12/02 07:13:08;;;;;;;5.30;0.65;;;3.00;99.90;;;;;;5013412;28;20562;-70
2021/12/02 07:15:46;;;;;;;2.10;0.50;;;3.00;99.90;;;;;;4996813;28;20058;-71
2021/12/02 07:18:13;;;;;;;2.20;0.57;;;3.00;99.90;;;;;;5013276;28;20046;-70
2021/12/02 07:20:40;;;;;;;6.57;1.00;;;3.10;99.90;;;;;;5013702;28;20048;-70
2021/12/02 07:23:06;;;;;;;4.57;0.60;;;3.10;99.90;;;;;;5013237;28;20417;-71
2021/12/02 07:25:33;;;;;;;3.63;0.60;;;3.10;99.90;;;;;;5013064;28;20427;-71
2021/12/02 07:27:58;;;;;;;4.57;0.60;;;3.10;99.90;;;;;;5012561;28;20069;-70
2021/12/02 07:30:24;;;;;;;0.95;0.43;;;3.10;99.90;;;;;;5012994;28;20077;-71
2021/12/02 07:32:56;;;;;;;2.30;0.60;;;3.10;99.90;;;;;;4996736;28;20099;-71
2021/12/02 07:35:23;;;;;;;1.95;0.60;;;3.20;99.90;;;;;;4996894;28;20118;-71
2021/12/02 07:37:51;;;;;;;1.80;0.60;;;3.10;99.90;;;;;;5013172;28;20034;-70
2021/12/02 07:40:19;;;;;;;3.45;0.40;;;3.20;99.90;;;;;;5013192;28;20046;-71
2021/12/02 07:42:46;;;;;;;1.73;0.47;;;3.20;99.90;;;;;;5013402;28;20127;-71
2021/12/02 07:45:12;;;;;;;2.42;0.50;;;3.20;99.90;;;;;;5013084;28;20046;-71
2021/12/02 07:47:40;;;;;;;2.90;0.52;;;3.20;99.90;;;;;;5012996;28;20115;-71
2021/12/02 07:50:08;;;;;;;4.35;0.63;;;3.20;99.90;;;;;;4997115;28;20101;-71
2021/12/02 07:52:39;;;;;;;4.75;0.73;;;3.20;99.90;;;;;;5012920;28;20069;-71
2021/12/02 07:55:07;;;;;;;1.33;0.60;;;3.20;99.90;;;;;;5012875;28;20049;-71
2021/12/02 07:57:34;;;;;;;2.30;0.70;;;3.20;99.90;;;;;;4996424;28;20502;-71
2021/12/02 08:00:00;;;;;;;1.80;0.52;;;3.20;99.90;;;;;;5012885;28;20045;-71
2021/12/02 08:02:28;;;;;;;2.47;0.60;;;3.20;99.90;;;;;;5012774;28;20037;-71
2021/12/02 08:04:54;;;;;;;1.80;0.70;;;3.20;99.90;;;;;;5012864;28;20046;-71
2021/12/02 08:07:20;;;;;;;3.75;1.00;;;3.20;99.90;;;;;;5012714;28;20050;-71
2021/12/02 08:09:46;;;;;;;2.10;0.80;;;3.20;99.90;;;;;;5012956;28;20041;-71
2021/12/02 08:12:11;;;;;;;4.32;0.80;;;3.20;99.90;;;;;;5013420;28;20482;-71
2021/12/02 08:14:37;;;;;;;4.20;1.30;;;3.30;99.90;;;;;;5012777;28;20038;-71
2021/12/02 08:17:04;;;;;;;4.80;0.95;;;3.30;99.90;;;;;;5012526;28;20107;-71
2021/12/02 08:19:29;;;;;;;2.83;0.80;;;3.30;99.90;;;;;;4996476;28;20064;-71
2021/12/02 08:21:55;;;;;;;4.07;0.98;;;3.30;99.90;;;;;;5012845;28;20498;-71
2021/12/02 08:24:23;;;;;;;3.15;0.80;;;3.40;99.90;;;;;;5016133;28;20052;-71
2021/12/02 08:26:49;;;;;;;3.42;0.68;;;3.30;99.90;;;;;;5016048;28;20038;-70
2021/12/02 08:29:15;;;;;;;1.67;0.57;;;3.40;99.90;;;;;;5043378;22;20045;-74
2021/12/02 08:31:41;;;;;;;5.13;0.60;;;3.30;99.90;;;;;;5018895;28;20038;-74
2021/12/02 08:34:07;;;;;;;3.47;0.60;;;3.40;99.90;;;;;;5018827;28;20044;-74
2021/12/02 08:36:42;;;;;;;2.58;0.70;;;3.40;99.90;;;;;;5018996;28;20127;-74
2021/12/02 08:39:11;;;;;;;1.58;0.52;;;3.40;99.90;;;;;;5002628;28;20397;-74
2021/12/02 08:41:42;;;;;;;2.53;0.43;;;3.40;99.90;;;;;;5018612;28;20045;-74
2021/12/02 08:44:08;;;;;;;3.88;0.77;;;3.40;99.90;;;;;;5018538;28;20048;-74
2021/12/02 08:46:33;;;;;;;3.22;0.70;;;3.40;99.90;;;;;;5018623;28;20033;-75
2021/12/02 08:48:59;;;;;;;1.95;0.60;;;3.40;99.90;;;;;;5002429;28;20033;-74
2021/12/02 08:51:25;;;;;;;4.78;0.63;;;3.40;99.90;;;;;;5002175;28;20566;-74
2021/12/02 08:53:50;;;;;;;1.45;0.38;;;3.40;99.90;;;;;;5018420;28;20095;-74
2021/12/02 08:56:16;;;;;;;4.35;0.70;;;3.30;99.90;;;;;;5018662;28;20053;-74
2021/12/02 08:58:41;;;;;;;2.75;0.57;;;3.30;99.90;;;;;;5018286;28;20089;-73
2021/12/02 09:01:07;;;;;;;3.13;0.50;;;3.30;99.90;;;;;;5018368;28;20038;-73
2021/12/02 09:03:33;;;;;;;2.22;0.50;;;3.30;99.90;;;;;;5001891;28;20061;-73
2021/12/02 09:06:00;;;;;;;2.45;0.52;;;3.30;99.90;;;;;;5018171;28;20041;-73
2021/12/02 09:08:26;;;;;;;2.88;0.82;;;3.30;99.90;;;;;;5018165;28;20037;-74
2021/12/02 09:10:51;;;;;;;2.70;0.50;;;3.30;99.90;;;;;;5018140;28;20037;-74
2021/12/02 09:13:17;;;;;;;4.40;0.70;;;3.30;99.90;;;;;;5018106;28;20037;-74
2021/12/02 09:15:43;;;;;;;2.38;0.47;;;3.40;99.90;;;;;;5018020;28;20073;-73
2021/12/02 09:18:09;;;;;;;2.25;0.40;;;3.40;99.90;;;;;;5001636;28;20083;-73
2021/12/02 09:20:35;;;;;;;3.17;0.40;;;3.50;99.90;;;;;;5001509;28;20481;-73
2021/12/02 09:23:02;;;;;;;1.80;0.50;;;3.50;99.90;;;;;;5018181;28;20047;-73
2021/12/02 09:25:28;;;;;;;2.40;0.50;;;3.60;99.90;;;;;;5017855;28;20045;-72
2021/12/02 09:27:54;;;;;;;3.40;0.68;;;3.70;99.90;;;;;;5001572;28;20083;-73
2021/12/02 09:30:19;;;;;;;2.03;0.50;;;3.70;99.90;;;;;;5001639;28;20474;-73
2021/12/02 09:32:46;;;;;;;3.25;0.68;;;3.90;99.90;;;;;;5017448;28;20489;-73
2021/12/02 09:35:12;;;;;;;2.63;0.50;;;4.00;99.90;;;;;;5017938;28;20489;-73
2021/12/02 09:37:38;;;;;;;4.22;0.90;;;4.00;99.90;;;;;;5017556;28;20088;-72
2021/12/02 09:40:07;;;;;;;3.17;0.90;;;4.10;99.90;;;;;;5001456;28;20076;-73
2021/12/02 09:42:33;;;;;;;3.50;0.80;;;4.20;99.90;;;;;;5017647;28;20053;-73
2021/12/02 09:45:00;;;;;;;3.55;0.73;;;4.20;99.90;;;;;;5017372;28;20041;-74
2021/12/02 09:47:29;;;;;;;3.80;0.68;;;4.30;99.90;;;;;;5001114;28;20487;-74
2021/12/02 09:49:57;;;;;;;3.50;0.63;;;4.30;99.90;;;;;;5017325;28;20046;-73
2021/12/02 09:52:30;;;;;;;3.28;1.02;;;4.40;99.90;;;;;;5001244;28;20042;-73
2021/12/02 09:55:09;;;;;;;3.83;0.90;;;4.50;99.90;;;;;;5017316;28;20417;-74
2021/12/02 09:57:39;;;;;;;3.33;1.20;;;4.60;99.90;;;;;;5017220;28;20167;-74
2021/12/02 10:00:07;;;;;;;3.65;1.10;;;4.80;99.90;;;;;;5017219;28;20103;-74
2021/12/02 10:02:40;;;;;;;1.55;0.80;;;4.90;99.90;;;;;;5017195;28;20077;-74
2021/12/02 10:05:08;;;;;;;;;;;4.80;99.90;;;;;;5017483;28;20497;-74
2021/12/02 10:07:44;;;;;;;3.47;0.90;;;4.70;99.90;;;;;;5016906;28;19917;-74
2021/12/02 10:10:25;;;;;;;4.82;1.00;;;4.70;99.90;;;;;;5017424;28;20405;-74
2021/12/02 10:13:32;;;;;;;2.58;0.68;;;4.60;99.90;;;;;;5001275;28;20121;-74
2021/12/02 10:16:03;;;;;;;3.00;0.60;;;4.60;99.90;;;;;;5016843;28;20179;-74
2021/12/02 10:19:03;;;;;;;8.02;0.60;;;4.50;99.90;;;;;;5016907;28;20091;-74
2021/12/02 10:21:38;;;;;;;3.95;1.50;;;4.60;99.90;;;;;;5016878;28;20079;-73
2021/12/02 10:24:07;;;;;;;5.63;0.85;;;4.60;99.90;;;;;;5016873;28;20053;-73
2021/12/02 10:26:36;;;;;;;5.38;0.90;;;4.70;99.90;;;;;;5016679;28;20042;-74
2021/12/02 10:29:12;;;;;;;2.83;0.43;;;4.70;99.90;;;;;;5016484;28;20041;-74
2021/12/02 10:31:38;;;;;;;1.83;0.70;;;4.70;99.90;;;;;;5016741;28;20069;-74
2021/12/02 10:34:07;;;;;;;2.50;0.70;;;4.60;99.90;;;;;;5016572;28;20083;-74
2021/12/02 10:36:37;;;;;;;2.85;0.80;;;4.60;99.90;;;;;;5016598;28;20087;-74
2021/12/02 10:39:10;;;;;;;6.65;1.35;;;4.60;99.90;;;;;;5016494;28;20045;-73
2021/12/02 10:41:36;;;;;;;5.75;1.58;;;4.60;99.90;;;;;;5016442;28;20501;-73
2021/12/02 10:44:20;;;;;;;2.13;0.50;;;4.50;99.90;;;;;;5016344;28;20067;-73
2021/12/02 10:46:57;;;;;;;2.10;0.30;;;4.40;99.90;;;;;;5016067;28;20112;-73
2021/12/02 10:49:24;;;;;;;2.78;0.50;;;4.20;99.90;;;;;;5016279;28;20045;-73
2021/12/02 10:51:53;;;;;;;2.03;0.45;;;4.10;99.90;;;;;;5000267;28;20029;-72
2021/12/02 10:54:24;;;;;;;2.58;0.40;;;3.90;99.90;;;;;;4999836;28;20041;-72
2021/12/02 10:56:57;;;;;;;1.10;0.50;;;3.70;99.90;;;;;;5016179;28;20057;-72
2021/12/02 10:59:27;;;;;;;1.30;0.57;;;3.50;99.90;;;;;;5015993;28;20425;-72
2021/12/02 11:01:54;;;;;;;0.80;0.40;;;3.40;99.90;;;;;;4999659;28;20041;-73
2021/12/02 11:04:21;;;;;;;1.25;0.45;;;3.40;99.90;;;;;;4999620;28;20046;-73
2021/12/02 11:06:48;;;;;;;3.70;1.60;;;3.30;99.90;;;;;;5016239;28;20045;-73
2021/12/02 11:09:25;;;;;;;2.67;1.20;;;3.40;99.90;;;;;;5016157;28;20073;-73
2021/12/02 11:12:08;;;;;;;2.40;0.60;;;3.40;99.90;;;;;;4999835;28;20045;-73
2021/12/02 11:14:39;;;;;;;5.25;0.70;;;3.40;99.90;;;;;;5015958;28;20103;-73
2021/12/02 11:17:10;;;;;;;2.72;0.40;;;3.30;99.90;;;;;;5016089;28;20045;-72
2021/12/02 11:19:36;;;;;;;3.80;0.50;;;3.30;99.90;;;;;;5016056;28;20045;-73
2021/12/02 11:22:10;;;;;;;2.67;0.40;;;3.30;99.90;;;;;;5016053;28;20191;-73
2021/12/02 11:24:37;;;;;;;1.92;0.40;;;3.30;99.90;;;;;;5015795;28;20550;-73
2021/12/02 11:27:20;;;;;;;1.55;0.30;;;3.30;99.90;;;;;;5016008;28;20393;-73
2021/12/02 11:30:35;;;;;;;3.95;0.60;;;3.40;99.90;;;;;;5016373;28;20060;-73
2021/12/02 11:33:07;;;;;;;2.58;0.95;;;3.40;99.90;;;;;;5012065;28;20045;-73
2021/12/02 11:35:34;;;;;;;2.85;1.30;;;3.40;99.90;;;;;;5015686;28;20038;-73
2021/12/02 11:38:17;;;;;;;4.30;2.17;;;3.50;99.90;;;;;;4999256;28;20037;-73
2021/12/02 11:40:48;;;;;;;2.15;0.85;;;3.60;99.90;;;;;;5015558;28;20038;-73
2021/12/02 11:43:17;;;;;;;6.32;3.47;;;3.60;99.90;;;;;;5015458;28;20049;-74
2021/12/02 11:45:48;;;;;;;7.75;3.00;;;3.70;99.90;;;;;;4999075;28;20497;-73
2021/12/02 11:48:20;;;;;;;7.25;4.03;;;3.70;99.90;;;;;;5015400;28;20033;-74
2021/12/02 11:50:47;;;;;;;4.25;2.20;;;3.80;99.90;;;;;;4999117;28;20037;-74
2021/12/02 11:53:14;;;;;;;4.07;1.58;;;3.80;99.90;;;;;;5015358;28;20049;-74
2021/12/02 11:55:42;;;;;;;3.90;2.13;;;3.70;99.90;;;;;;5015337;28;20485;-74
2021/12/02 11:58:09;;;;;;;4.63;1.40;;;3.70;99.90;;;;;;5019475;28;20037;-74
2021/12/02 12:00:35;;;;;;;2.35;1.00;;;3.60;99.90;;;;;;5019431;28;20512;-74
2021/12/02 12:03:11;;;;;;;5.15;0.50;;;3.60;99.90;;;;;;5019625;28;20510;-74
2021/12/02 12:05:40;;;;;;;2.78;0.38;;;3.60;99.90;;;;;;5019618;28;20048;-74
2021/12/02 12:08:07;;;;;;;3.20;0.32;;;3.60;99.90;;;;;;5019567;28;20037;-74
2021/12/02 12:10:38;;;;;;;1.60;0.60;;;3.50;99.90;;;;;;5020226;28;20126;-74
2021/12/02 12:13:21;;;;;;;3.83;0.45;;;3.50;99.90;;;;;;5019638;28;20083;-73
2021/12/02 12:16:00;;;;;;;0.88;0.28;;;3.50;99.90;;;;;;5019379;28;20040;-74
2021/12/02 12:18:25;;;;;;;0.82;0.40;;;3.50;99.90;;;;;;5019209;28;20394;-74
2021/12/02 12:20:52;;;;;;;1.00;0.40;;;3.50;99.90;;;;;;5019328;28;20068;-73
2021/12/02 12:24:00;;;;;;;2.05;0.50;;;3.50;99.90;;;;;;5019353;28;20048;-73
2021/12/02 12:26:42;;;;;;;3.72;0.38;;;3.50;99.90;;;;;;4937261;29;20496;-74
2021/12/02 12:29:12;;;;;;;2.13;0.30;;;3.60;99.90;;;;;;5014226;28;20124;-74
2021/12/02 12:31:50;;;;;;;0.93;0.40;;;3.50;99.90;;;;;;5019262;28;20409;-74
2021/12/02 12:35:12;;;;;;;2.85;0.73;;;3.50;99.90;;;;;;5019186;28;20124;-74
2021/12/02 12:38:03;;;;;;;1.73;0.98;;;3.50;99.90;;;;;;5013477;28;20501;-74
2021/12/02 12:40:03;;;;;;;4.15;0.90;;;3.50;99.90;;;;;;5011956;28;20049;-73
2021/12/02 12:42:28;;;;;;;2.38;0.90;;;3.80;99.90;;;;;;5018760;28;20053;-74
2021/12/02 12:44:56;;;;;;;3.28;0.65;;;4.60;99.90;;;;;;5018566;28;20096;-74
2021/12/02 12:47:41;;;;;;;2.85;0.50;;;5.40;99.90;;;;;;5018554;28;20140;-74
2021/12/02 12:50:25;;;;;;;0.77;0.45;;;6.30;99.40;;;;;;5018771;28;20049;-74
2021/12/02 12:53:02;;;;;;;2.25;0.63;;;7.00;97.70;;;;;;5018496;28;20041;-74
2021/12/02 12:55:30;;;;;;;2.35;0.73;;;7.80;96.20;;;;;;5018424;28;20041;-73
2021/12/02 12:58:17;;;;;;;2.10;0.60;;;8.40;94.80;;;;;;5018643;28;20111;-74
2021/12/02 13:00:46;;;;;;;1.42;0.52;;;8.60;92.50;;;;;;5018390;28;20037;-74
2021/12/02 13:03:26;;;;;;;1.55;0.60;;;8.60;93.10;;;;;;5018225;28;20455;-74
2021/12/02 13:05:56;;;;;;;2.35;0.43;;;9.00;92.40;;;;;;5002247;28;20073;-74
2021/12/02 13:08:35;;;;;;;1.77;0.60;;;9.40;91.50;;;;;;5001112;28;20520;-74
2021/12/02 13:11:12;;;;;;;3.65;1.13;;;9.60;90.20;;;;;;5018095;28;20079;-74
2021/12/02 13:13:43;;;;;;;2.05;0.40;;;9.70;90.10;;;;;;5018455;28;20041;-74
2021/12/02 13:16:20;;;;;;;3.03;0.80;;;9.60;88.20;;;;;;5018504;28;20135;-74
2021/12/02 13:18:59;;;;;;;4.47;1.33;;;9.70;88.60;;;;;;5018221;28;20406;-74
2021/12/02 13:21:28;;;;;;;3.67;1.77;;;9.30;87.00;;;;;;5018251;28;20041;-73
2021/12/02 13:24:03;;;;;;;3.40;0.60;;;8.50;89.70;;;;;;5018044;28;20111;-73
2021/12/02 13:26:33;;;;;;;5.78;1.00;;;7.90;90.80;;;;;;5017858;28;20033;-73
2021/12/02 13:29:11;;;;;;;3.40;1.08;;;7.20;92.00;;;;;;5001338;28;20048;-73
2021/12/02 13:31:39;;;;;;;3.28;1.50;;;7.10;93.20;;;;;;5001460;28;20105;-73
2021/12/02 13:34:10;;;;;;;3.28;1.05;;;7.10;93.30;;;;;;5017690;28;20053;-73
2021/12/02 13:36:39;;;;;;;3.55;1.25;;;7.30;93.40;;;;;;5017885;28;20040;-73